sensor_id;sensor_type;location;lat;lon;timestamp;P1;durP1;ratioP1;P2;durP2;ratioP2
51862;SDS011;37900;52.996;6.278;2023-04-25T00:00:35;3.17;;;1.77;;
51862;SDS011;37900;52.996;6.278;2023-04-25T00:03:00;4.07;;;1.67;;
51862;SDS011;37900;52.996;6.278;2023-04-25T00:05:26;3.50;;;1.92;;
51862;SDS011;37900;52.996;6.278;2023-04-25T00:07:52;3.42;;;2.08;;
51862;SDS011;37900;52.996;6.278;2023-04-25T00:10:19;2.95;;;1.83;;
51862;SDS011;37900;52.996;6.278;2023-04-25T00:12:45;3.17;;;1.85;;
51862;SDS011;37900;52.996;6.278;2023-04-25T00:15:11;3.70;;;2.00;;
51862;SDS011;37900;52.996;6.278;2023-04-25T00:17:37;3.45;;;2.17;;
51862;SDS011;37900;52.996;6.278;2023-04-25T00:20:04;4.28;;;1.63;;
51862;SDS011;37900;52.996;6.278;2023-04-25T00:22:31;3.50;;;1.80;;
51862;SDS011;37900;52.996;6.278;2023-04-25T00:24:59;2.20;;;1.75;;
51862;SDS011;37900;52.996;6.278;2023-04-25T00:27:25;4.43;;;2.08;;
51862;SDS011;37900;52.996;6.278;2023-04-25T00:29:51;2.88;;;1.58;;
51862;SDS011;37900;52.996;6.278;2023-04-25T00:32:17;4.40;;;2.28;;
51862;SDS011;37900;52.996;6.278;2023-04-25T00:34:43;5.65;;;2.00;;
51862;SDS011;37900;52.996;6.278;2023-04-25T00:37:08;4.65;;;1.73;;
51862;SDS011;37900;52.996;6.278;2023-04-25T00:39:35;2.50;;;1.60;;
51862;SDS011;37900;52.996;6.278;2023-04-25T00:42:01;2.83;;;1.60;;
51862;SDS011;37900;52.996;6.278;2023-04-25T00:44:29;3.58;;;1.83;;
51862;SDS011;37900;52.996;6.278;2023-04-25T00:46:57;1.90;;;1.58;;
51862;SDS011;37900;52.996;6.278;2023-04-25T00:49:23;3.65;;;1.70;;
51862;SDS011;37900;52.996;6.278;2023-04-25T00:51:48;4.45;;;2.10;;
51862;SDS011;37900;52.996;6.278;2023-04-25T00:54:15;4.82;;;2.00;;
51862;SDS011;37900;52.996;6.278;2023-04-25T00:56:41;2.88;;;1.67;;
51862;SDS011;37900;52.996;6.278;2023-04-25T00:59:07;2.67;;;1.70;;
51862;SDS011;37900;52.996;6.278;2023-04-25T01:01:34;2.58;;;1.80;;
51862;SDS011;37900;52.996;6.278;2023-04-25T01:04:01;3.08;;;1.50;;
51862;SDS011;37900;52.996;6.278;2023-04-25T01:06:27;3.20;;;1.77;;
51862;SDS011;37900;52.996;6.278;2023-04-25T01:08:53;3.92;;;2.08;;
51862;SDS011;37900;52.996;6.278;2023-04-25T01:11:19;2.20;;;1.50;;
51862;SDS011;37900;52.996;6.278;2023-04-25T01:13:45;4.13;;;1.90;;
51862;SDS011;37900;52.996;6.278;2023-04-25T01:16:11;3.33;;;1.52;;
51862;SDS011;37900;52.996;6.278;2023-04-25T01:18:38;3.65;;;1.48;;
51862;SDS011;37900;52.996;6.278;2023-04-25T01:21:06;2.45;;;1.48;;
51862;SDS011;37900;52.996;6.278;2023-04-25T01:23:36;2.50;;;1.65;;
51862;SDS011;37900;52.996;6.278;2023-04-25T01:26:03;2.63;;;1.67;;
51862;SDS011;37900;52.996;6.278;2023-04-25T01:28:29;2.50;;;1.70;;
51862;SDS011;37900;52.996;6.278;2023-04-25T01:30:56;2.83;;;1.33;;
51862;SDS011;37900;52.996;6.278;2023-04-25T01:33:22;2.70;;;1.92;;
51862;SDS011;37900;52.996;6.278;2023-04-25T01:35:48;2.70;;;1.70;;
51862;SDS011;37900;52.996;6.278;2023-04-25T01:38:14;4.03;;;1.77;;
51862;SDS011;37900;52.996;6.278;2023-04-25T01:40:40;3.63;;;1.95;;
51862;SDS011;37900;52.996;6.278;2023-04-25T01:43:06;3.22;;;2.10;;
51862;SDS011;37900;52.996;6.278;2023-04-25T01:45:33;2.75;;;1.55;;
51862;SDS011;37900;52.996;6.278;2023-04-25T01:48:01;2.67;;;1.58;;
51862;SDS011;37900;52.996;6.278;2023-04-25T01:50:27;2.85;;;2.17;;
51862;SDS011;37900;52.996;6.278;2023-04-25T01:52:54;2.33;;;1.80;;
51862;SDS011;37900;52.996;6.278;2023-04-25T01:55:20;1.80;;;1.48;;
51862;SDS011;37900;52.996;6.278;2023-04-25T01:57:46;3.20;;;2.05;;
51862;SDS011;37900;52.996;6.278;2023-04-25T02:00:12;3.78;;;1.80;;
51862;SDS011;37900;52.996;6.278;2023-04-25T02:02:38;4.15;;;1.50;;
51862;SDS011;37900;52.996;6.278;2023-04-25T02:05:03;2.67;;;1.80;;
51862;SDS011;37900;52.996;6.278;2023-04-25T02:07:30;2.47;;;1.50;;
51862;SDS011;37900;52.996;6.278;2023-04-25T02:09:55;2.72;;;1.50;;
51862;SDS011;37900;52.996;6.278;2023-04-25T02:12:21;3.88;;;1.70;;
51862;SDS011;37900;52.996;6.278;2023-04-25T02:14:47;3.05;;;1.95;;
51862;SDS011;37900;52.996;6.278;2023-04-25T02:17:12;2.83;;;1.52;;
51862;SDS011;37900;52.996;6.278;2023-04-25T02:19:38;2.10;;;1.42;;
51862;SDS011;37900;52.996;6.278;2023-04-25T02:22:04;4.55;;;1.77;;
51862;SDS011;37900;52.996;6.278;2023-04-25T02:24:30;1.48;;;1.10;;
51862;SDS011;37900;52.996;6.278;2023-04-25T02:26:56;2.05;;;1.73;;
51862;SDS011;37900;52.996;6.278;2023-04-25T02:29:22;2.20;;;1.67;;
51862;SDS011;37900;52.996;6.278;2023-04-25T02:31:48;2.83;;;1.42;;
51862;SDS011;37900;52.996;6.278;2023-04-25T02:34:14;4.22;;;1.55;;
51862;SDS011;37900;52.996;6.278;2023-04-25T02:36:39;1.70;;;1.45;;
51862;SDS011;37900;52.996;6.278;2023-04-25T02:39:05;2.40;;;1.20;;
51862;SDS011;37900;52.996;6.278;2023-04-25T02:41:30;2.95;;;1.80;;
51862;SDS011;37900;52.996;6.278;2023-04-25T02:43:56;2.80;;;1.88;;
51862;SDS011;37900;52.996;6.278;2023-04-25T02:46:22;2.92;;;1.35;;
51862;SDS011;37900;52.996;6.278;2023-04-25T02:48:47;2.33;;;1.50;;
51862;SDS011;37900;52.996;6.278;2023-04-25T02:51:13;1.67;;;1.33;;
51862;SDS011;37900;52.996;6.278;2023-04-25T02:53:41;3.35;;;2.00;;
51862;SDS011;37900;52.996;6.278;2023-04-25T02:56:07;2.50;;;1.58;;
51862;SDS011;37900;52.996;6.278;2023-04-25T02:58:33;3.78;;;1.92;;
51862;SDS011;37900;52.996;6.278;2023-04-25T03:00:58;2.22;;;1.65;;
51862;SDS011;37900;52.996;6.278;2023-04-25T03:03:24;2.75;;;1.60;;
51862;SDS011;37900;52.996;6.278;2023-04-25T03:05:50;2.83;;;1.58;;
51862;SDS011;37900;52.996;6.278;2023-04-25T03:08:16;2.13;;;1.40;;
51862;SDS011;37900;52.996;6.278;2023-04-25T03:10:43;2.83;;;1.55;;
51862;SDS011;37900;52.996;6.278;2023-04-25T03:13:09;2.23;;;1.50;;
51862;SDS011;37900;52.996;6.278;2023-04-25T03:15:35;2.28;;;1.60;;
51862;SDS011;37900;52.996;6.278;2023-04-25T03:18:01;2.30;;;1.33;;
51862;SDS011;37900;52.996;6.278;2023-04-25T03:20:27;1.75;;;1.55;;
51862;SDS011;37900;52.996;6.278;2023-04-25T03:22:53;2.03;;;1.48;;
51862;SDS011;37900;52.996;6.278;2023-04-25T03:25:19;2.10;;;1.50;;
51862;SDS011;37900;52.996;6.278;2023-04-25T03:27:44;1.95;;;1.50;;
51862;SDS011;37900;52.996;6.278;2023-04-25T03:30:10;2.80;;;1.67;;
51862;SDS011;37900;52.996;6.278;2023-04-25T03:32:36;3.50;;;1.67;;
51862;SDS011;37900;52.996;6.278;2023-04-25T03:35:02;3.10;;;1.48;;
51862;SDS011;37900;52.996;6.278;2023-04-25T03:37:28;3.75;;;1.60;;
51862;SDS011;37900;52.996;6.278;2023-04-25T03:39:54;2.17;;;1.40;;
51862;SDS011;37900;52.996;6.278;2023-04-25T03:42:19;3.10;;;1.50;;
51862;SDS011;37900;52.996;6.278;2023-04-25T03:44:47;2.90;;;1.48;;
51862;SDS011;37900;52.996;6.278;2023-04-25T03:47:14;2.95;;;1.77;;
51862;SDS011;37900;52.996;6.278;2023-04-25T03:49:41;2.65;;;1.30;;
51862;SDS011;37900;52.996;6.278;2023-04-25T03:52:07;1.92;;;1.50;;
51862;SDS011;37900;52.996;6.278;2023-04-25T03:54:32;2.25;;;1.73;;
51862;SDS011;37900;52.996;6.278;2023-04-25T03:56:58;2.58;;;1.52;;
51862;SDS011;37900;52.996;6.278;2023-04-25T03:59:24;1.38;;;1.23;;
51862;SDS011;37900;52.996;6.278;2023-04-25T04:01:51;2.17;;;1.70;;
51862;SDS011;37900;52.996;6.278;2023-04-25T04:04:17;1.42;;;1.20;;
51862;SDS011;37900;52.996;6.278;2023-04-25T04:06:43;2.22;;;1.33;;
51862;SDS011;37900;52.996;6.278;2023-04-25T04:09:09;2.50;;;1.20;;
51862;SDS011;37900;52.996;6.278;2023-04-25T04:11:36;3.08;;;1.23;;
51862;SDS011;37900;52.996;6.278;2023-04-25T04:14:04;2.22;;;1.20;;
51862;SDS011;37900;52.996;6.278;2023-04-25T04:16:31;1.95;;;1.23;;
51862;SDS011;37900;52.996;6.278;2023-04-25T04:18:56;2.00;;;1.20;;
51862;SDS011;37900;52.996;6.278;2023-04-25T04:21:22;2.47;;;1.35;;
51862;SDS011;37900;52.996;6.278;2023-04-25T04:23:48;2.40;;;1.50;;
51862;SDS011;37900;52.996;6.278;2023-04-25T04:26:14;2.22;;;1.50;;
51862;SDS011;37900;52.996;6.278;2023-04-25T04:28:41;1.90;;;1.25;;
51862;SDS011;37900;52.996;6.278;2023-04-25T04:31:09;3.28;;;1.48;;
51862;SDS011;37900;52.996;6.278;2023-04-25T04:33:35;1.60;;;1.20;;
51862;SDS011;37900;52.996;6.278;2023-04-25T04:36:02;1.73;;;1.40;;
51862;SDS011;37900;52.996;6.278;2023-04-25T04:38:28;2.50;;;1.55;;
51862;SDS011;37900;52.996;6.278;2023-04-25T04:40:55;2.58;;;1.40;;
51862;SDS011;37900;52.996;6.278;2023-04-25T04:43:21;1.98;;;1.40;;
51862;SDS011;37900;52.996;6.278;2023-04-25T04:45:48;3.35;;;1.65;;
51862;SDS011;37900;52.996;6.278;2023-04-25T04:48:15;2.33;;;1.10;;
51862;SDS011;37900;52.996;6.278;2023-04-25T04:50:44;2.42;;;1.50;;
51862;SDS011;37900;52.996;6.278;2023-04-25T04:53:10;1.77;;;1.20;;
51862;SDS011;37900;52.996;6.278;2023-04-25T04:55:36;1.83;;;1.40;;
51862;SDS011;37900;52.996;6.278;2023-04-25T04:58:02;2.38;;;1.63;;
51862;SDS011;37900;52.996;6.278;2023-04-25T05:00:28;1.77;;;1.25;;
51862;SDS011;37900;52.996;6.278;2023-04-25T05:02:54;2.20;;;1.30;;
51862;SDS011;37900;52.996;6.278;2023-04-25T05:05:23;2.63;;;1.30;;
51862;SDS011;37900;52.996;6.278;2023-04-25T05:07:49;1.80;;;1.30;;
51862;SDS011;37900;52.996;6.278;2023-04-25T05:10:16;2.00;;;1.45;;
51862;SDS011;37900;52.996;6.278;2023-04-25T05:12:42;1.85;;;1.30;;
51862;SDS011;37900;52.996;6.278;2023-04-25T05:15:08;2.38;;;1.30;;
51862;SDS011;37900;52.996;6.278;2023-04-25T05:17:34;2.15;;;1.20;;
51862;SDS011;37900;52.996;6.278;2023-04-25T05:20:01;1.87;;;1.27;;
51862;SDS011;37900;52.996;6.278;2023-04-25T05:22:26;2.67;;;1.80;;
51862;SDS011;37900;52.996;6.278;2023-04-25T05:24:53;2.55;;;1.45;;
51862;SDS011;37900;52.996;6.278;2023-04-25T05:27:19;2.70;;;1.63;;
51862;SDS011;37900;52.996;6.278;2023-04-25T05:29:45;3.13;;;1.20;;
51862;SDS011;37900;52.996;6.278;2023-04-25T05:32:10;1.83;;;1.15;;
51862;SDS011;37900;52.996;6.278;2023-04-25T05:34:36;1.80;;;1.08;;
51862;SDS011;37900;52.996;6.278;2023-04-25T05:37:02;1.48;;;1.02;;
51862;SDS011;37900;52.996;6.278;2023-04-25T05:39:28;1.65;;;1.13;;
51862;SDS011;37900;52.996;6.278;2023-04-25T05:41:54;2.85;;;1.55;;
51862;SDS011;37900;52.996;6.278;2023-04-25T05:44:20;2.58;;;1.38;;
51862;SDS011;37900;52.996;6.278;2023-04-25T05:46:46;1.65;;;1.13;;
51862;SDS011;37900;52.996;6.278;2023-04-25T05:49:12;2.42;;;1.33;;
51862;SDS011;37900;52.996;6.278;2023-04-25T05:51:38;2.10;;;1.27;;
51862;SDS011;37900;52.996;6.278;2023-04-25T05:54:03;3.65;;;1.48;;
51862;SDS011;37900;52.996;6.278;2023-04-25T05:56:29;2.70;;;1.50;;
51862;SDS011;37900;52.996;6.278;2023-04-25T05:58:55;3.05;;;1.40;;
51862;SDS011;37900;52.996;6.278;2023-04-25T06:01:22;1.42;;;1.30;;
51862;SDS011;37900;52.996;6.278;2023-04-25T06:03:48;1.80;;;1.38;;
51862;SDS011;37900;52.996;6.278;2023-04-25T06:06:13;2.90;;;1.60;;
51862;SDS011;37900;52.996;6.278;2023-04-25T06:08:40;4.13;;;1.60;;
51862;SDS011;37900;52.996;6.278;2023-04-25T06:11:06;1.63;;;1.10;;
51862;SDS011;37900;52.996;6.278;2023-04-25T06:13:32;7.43;;;2.92;;
51862;SDS011;37900;52.996;6.278;2023-04-25T06:15:58;5.80;;;2.50;;
51862;SDS011;37900;52.996;6.278;2023-04-25T06:18:24;5.78;;;2.67;;
51862;SDS011;37900;52.996;6.278;2023-04-25T06:20:49;4.93;;;2.53;;
51862;SDS011;37900;52.996;6.278;2023-04-25T06:23:15;5.45;;;2.58;;
51862;SDS011;37900;52.996;6.278;2023-04-25T06:25:41;4.57;;;2.20;;
51862;SDS011;37900;52.996;6.278;2023-04-25T06:28:06;5.95;;;2.42;;
51862;SDS011;37900;52.996;6.278;2023-04-25T06:30:32;4.65;;;2.47;;
51862;SDS011;37900;52.996;6.278;2023-04-25T06:32:58;5.53;;;2.90;;
51862;SDS011;37900;52.996;6.278;2023-04-25T06:35:23;4.38;;;2.45;;
51862;SDS011;37900;52.996;6.278;2023-04-25T06:37:49;3.88;;;2.50;;
51862;SDS011;37900;52.996;6.278;2023-04-25T06:40:15;4.05;;;2.20;;
51862;SDS011;37900;52.996;6.278;2023-04-25T06:42:42;4.25;;;2.45;;
51862;SDS011;37900;52.996;6.278;2023-04-25T06:45:08;4.90;;;2.35;;
51862;SDS011;37900;52.996;6.278;2023-04-25T06:47:34;7.75;;;2.40;;
51862;SDS011;37900;52.996;6.278;2023-04-25T06:50:00;3.80;;;2.20;;
51862;SDS011;37900;52.996;6.278;2023-04-25T06:52:26;3.65;;;2.20;;
51862;SDS011;37900;52.996;6.278;2023-04-25T06:54:51;4.97;;;2.17;;
51862;SDS011;37900;52.996;6.278;2023-04-25T06:57:17;4.97;;;2.35;;
51862;SDS011;37900;52.996;6.278;2023-04-25T06:59:43;3.08;;;2.10;;
51862;SDS011;37900;52.996;6.278;2023-04-25T07:02:08;4.70;;;2.50;;
51862;SDS011;37900;52.996;6.278;2023-04-25T07:04:34;6.90;;;2.55;;
51862;SDS011;37900;52.996;6.278;2023-04-25T07:07:00;4.25;;;2.25;;
51862;SDS011;37900;52.996;6.278;2023-04-25T07:09:27;4.13;;;2.15;;
51862;SDS011;37900;52.996;6.278;2023-04-25T07:11:53;5.18;;;2.10;;
51862;SDS011;37900;52.996;6.278;2023-04-25T07:14:19;3.72;;;2.08;;
51862;SDS011;37900;52.996;6.278;2023-04-25T07:16:45;3.13;;;2.35;;
51862;SDS011;37900;52.996;6.278;2023-04-25T07:19:11;5.72;;;2.40;;
51862;SDS011;37900;52.996;6.278;2023-04-25T07:21:37;4.20;;;2.30;;
51862;SDS011;37900;52.996;6.278;2023-04-25T07:24:03;4.43;;;2.05;;
51862;SDS011;37900;52.996;6.278;2023-04-25T07:26:29;3.50;;;2.15;;
51862;SDS011;37900;52.996;6.278;2023-04-25T07:28:54;3.88;;;2.10;;
51862;SDS011;37900;52.996;6.278;2023-04-25T07:31:21;4.47;;;2.60;;
51862;SDS011;37900;52.996;6.278;2023-04-25T07:33:47;4.28;;;2.20;;
51862;SDS011;37900;52.996;6.278;2023-04-25T07:36:13;4.95;;;2.40;;
51862;SDS011;37900;52.996;6.278;2023-04-25T07:38:40;2.85;;;1.88;;
51862;SDS011;37900;52.996;6.278;2023-04-25T07:41:06;4.95;;;2.10;;
51862;SDS011;37900;52.996;6.278;2023-04-25T07:43:32;4.40;;;2.05;;
51862;SDS011;37900;52.996;6.278;2023-04-25T07:45:58;4.65;;;1.98;;
51862;SDS011;37900;52.996;6.278;2023-04-25T07:48:23;4.28;;;2.65;;
51862;SDS011;37900;52.996;6.278;2023-04-25T07:50:49;3.53;;;2.00;;
51862;SDS011;37900;52.996;6.278;2023-04-25T07:53:16;3.95;;;2.58;;
51862;SDS011;37900;52.996;6.278;2023-04-25T07:55:43;4.28;;;2.17;;
51862;SDS011;37900;52.996;6.278;2023-04-25T07:58:09;2.22;;;1.60;;
51862;SDS011;37900;52.996;6.278;2023-04-25T08:00:36;4.10;;;1.88;;
51862;SDS011;37900;52.996;6.278;2023-04-25T08:03:02;3.40;;;1.88;;
51862;SDS011;37900;52.996;6.278;2023-04-25T08:05:28;2.83;;;1.60;;
51862;SDS011;37900;52.996;6.278;2023-04-25T08:07:54;3.42;;;2.00;;
51862;SDS011;37900;52.996;6.278;2023-04-25T08:12:48;4.25;;;1.95;;
51862;SDS011;37900;52.996;6.278;2023-04-25T08:15:14;5.05;;;2.20;;
51862;SDS011;37900;52.996;6.278;2023-04-25T08:17:40;2.97;;;1.90;;
51862;SDS011;37900;52.996;6.278;2023-04-25T08:20:06;2.33;;;1.58;;
51862;SDS011;37900;52.996;6.278;2023-04-25T08:22:32;3.42;;;2.30;;
51862;SDS011;37900;52.996;6.278;2023-04-25T08:24:59;4.37;;;2.17;;
51862;SDS011;37900;52.996;6.278;2023-04-25T08:27:24;3.35;;;2.05;;
51862;SDS011;37900;52.996;6.278;2023-04-25T08:29:50;2.78;;;1.75;;
51862;SDS011;37900;52.996;6.278;2023-04-25T08:32:16;2.72;;;1.80;;
51862;SDS011;37900;52.996;6.278;2023-04-25T08:34:42;2.90;;;1.88;;
51862;SDS011;37900;52.996;6.278;2023-04-25T08:37:09;3.00;;;1.80;;
51862;SDS011;37900;52.996;6.278;2023-04-25T08:39:38;3.63;;;2.38;;
51862;SDS011;37900;52.996;6.278;2023-04-25T08:42:05;4.80;;;2.28;;
51862;SDS011;37900;52.996;6.278;2023-04-25T08:44:35;2.65;;;1.70;;
51862;SDS011;37900;52.996;6.278;2023-04-25T08:49:30;3.08;;;1.75;;
51862;SDS011;37900;52.996;6.278;2023-04-25T08:51:59;2.75;;;1.70;;
51862;SDS011;37900;52.996;6.278;2023-04-25T08:54:29;2.83;;;1.60;;
51862;SDS011;37900;52.996;6.278;2023-04-25T08:56:56;2.42;;;1.70;;
51862;SDS011;37900;52.996;6.278;2023-04-25T08:59:27;2.38;;;1.63;;
51862;SDS011;37900;52.996;6.278;2023-04-25T09:01:53;2.20;;;1.70;;
51862;SDS011;37900;52.996;6.278;2023-04-25T09:04:19;3.73;;;2.00;;
51862;SDS011;37900;52.996;6.278;2023-04-25T09:06:46;2.80;;;1.85;;
51862;SDS011;37900;52.996;6.278;2023-04-25T09:09:12;3.07;;;2.00;;
51862;SDS011;37900;52.996;6.278;2023-04-25T09:11:39;2.38;;;1.70;;
51862;SDS011;37900;52.996;6.278;2023-04-25T09:14:16;3.25;;;1.65;;
51862;SDS011;37900;52.996;6.278;2023-04-25T09:19:27;4.18;;;1.95;;
51862;SDS011;37900;52.996;6.278;2023-04-25T09:21:58;4.40;;;1.85;;
51862;SDS011;37900;52.996;6.278;2023-04-25T09:24:32;3.55;;;1.58;;
51862;SDS011;37900;52.996;6.278;2023-04-25T09:26:59;2.72;;;1.75;;
51862;SDS011;37900;52.996;6.278;2023-04-25T09:29:32;2.78;;;1.75;;
51862;SDS011;37900;52.996;6.278;2023-04-25T09:34:47;3.95;;;1.80;;
51862;SDS011;37900;52.996;6.278;2023-04-25T09:37:19;2.10;;;1.50;;
51862;SDS011;37900;52.996;6.278;2023-04-25T09:39:50;4.63;;;2.30;;
51862;SDS011;37900;52.996;6.278;2023-04-25T09:42:20;3.10;;;1.67;;
51862;SDS011;37900;52.996;6.278;2023-04-25T09:44:49;2.72;;;1.40;;
51862;SDS011;37900;52.996;6.278;2023-04-25T09:47:17;4.88;;;1.60;;
51862;SDS011;37900;52.996;6.278;2023-04-25T09:49:46;2.60;;;1.55;;
51862;SDS011;37900;52.996;6.278;2023-04-25T09:52:16;2.40;;;1.80;;
51862;SDS011;37900;52.996;6.278;2023-04-25T09:54:46;2.63;;;1.63;;
51862;SDS011;37900;52.996;6.278;2023-04-25T09:57:14;2.30;;;1.40;;
51862;SDS011;37900;52.996;6.278;2023-04-25T09:59:44;4.18;;;1.60;;
51862;SDS011;37900;52.996;6.278;2023-04-25T10:02:13;2.15;;;1.60;;
51862;SDS011;37900;52.996;6.278;2023-04-25T10:04:40;3.22;;;1.70;;
51862;SDS011;37900;52.996;6.278;2023-04-25T10:07:07;2.33;;;2.03;;
51862;SDS011;37900;52.996;6.278;2023-04-25T10:09:36;3.40;;;2.03;;
51862;SDS011;37900;52.996;6.278;2023-04-25T10:12:03;2.38;;;1.65;;
51862;SDS011;37900;52.996;6.278;2023-04-25T10:14:30;3.25;;;1.88;;
51862;SDS011;37900;52.996;6.278;2023-04-25T10:16:57;2.13;;;1.45;;
51862;SDS011;37900;52.996;6.278;2023-04-25T10:19:23;2.47;;;1.75;;
51862;SDS011;37900;52.996;6.278;2023-04-25T10:21:51;3.45;;;1.50;;
51862;SDS011;37900;52.996;6.278;2023-04-25T10:24:32;2.05;;;1.58;;
51862;SDS011;37900;52.996;6.278;2023-04-25T10:26:58;2.90;;;1.67;;
51862;SDS011;37900;52.996;6.278;2023-04-25T10:29:25;3.88;;;1.90;;
51862;SDS011;37900;52.996;6.278;2023-04-25T10:31:51;2.63;;;1.48;;
51862;SDS011;37900;52.996;6.278;2023-04-25T10:34:17;1.80;;;1.38;;
51862;SDS011;37900;52.996;6.278;2023-04-25T10:36:53;2.72;;;2.03;;
51862;SDS011;37900;52.996;6.278;2023-04-25T10:39:23;2.95;;;1.63;;
51862;SDS011;37900;52.996;6.278;2023-04-25T10:41:52;3.67;;;1.58;;
51862;SDS011;37900;52.996;6.278;2023-04-25T10:44:21;1.77;;;1.42;;
51862;SDS011;37900;52.996;6.278;2023-04-25T10:46:46;2.60;;;1.48;;
51862;SDS011;37900;52.996;6.278;2023-04-25T10:49:28;1.75;;;1.40;;
51862;SDS011;37900;52.996;6.278;2023-04-25T10:52:13;2.33;;;1.50;;
51862;SDS011;37900;52.996;6.278;2023-04-25T10:54:42;2.42;;;1.55;;
51862;SDS011;37900;52.996;6.278;2023-04-25T10:57:28;2.22;;;1.42;;
51862;SDS011;37900;52.996;6.278;2023-04-25T11:00:38;11.52;;;2.60;;
51862;SDS011;37900;52.996;6.278;2023-04-25T11:02:51;3.30;;;1.65;;
51862;SDS011;37900;52.996;6.278;2023-04-25T11:07:55;3.08;;;1.85;;
51862;SDS011;37900;52.996;6.278;2023-04-25T11:10:28;4.53;;;1.75;;
51862;SDS011;37900;52.996;6.278;2023-04-25T11:12:55;2.70;;;1.83;;
51862;SDS011;37900;52.996;6.278;2023-04-25T11:15:22;4.20;;;1.83;;
51862;SDS011;37900;52.996;6.278;2023-04-25T11:17:48;1.90;;;1.38;;
51862;SDS011;37900;52.996;6.278;2023-04-25T11:20:15;1.40;;;1.30;;
51862;SDS011;37900;52.996;6.278;2023-04-25T11:22:41;3.88;;;1.88;;
51862;SDS011;37900;52.996;6.278;2023-04-25T11:25:11;2.72;;;1.60;;
51862;SDS011;37900;52.996;6.278;2023-04-25T11:27:40;4.85;;;1.65;;
51862;SDS011;37900;52.996;6.278;2023-04-25T11:30:16;3.55;;;1.80;;
51862;SDS011;37900;52.996;6.278;2023-04-25T11:32:42;3.28;;;1.40;;
51862;SDS011;37900;52.996;6.278;2023-04-25T11:35:08;1.90;;;1.40;;
51862;SDS011;37900;52.996;6.278;2023-04-25T11:37:35;1.90;;;1.38;;
51862;SDS011;37900;52.996;6.278;2023-04-25T11:40:04;2.42;;;1.60;;
51862;SDS011;37900;52.996;6.278;2023-04-25T11:42:43;4.03;;;1.48;;
51862;SDS011;37900;52.996;6.278;2023-04-25T11:45:11;2.95;;;1.85;;
51862;SDS011;37900;52.996;6.278;2023-04-25T11:47:37;2.70;;;1.60;;
51862;SDS011;37900;52.996;6.278;2023-04-25T11:50:04;3.70;;;1.50;;
51862;SDS011;37900;52.996;6.278;2023-04-25T11:52:38;3.83;;;1.80;;
51862;SDS011;37900;52.996;6.278;2023-04-25T11:55:08;4.05;;;1.63;;
51862;SDS011;37900;52.996;6.278;2023-04-25T11:57:35;3.35;;;1.85;;
51862;SDS011;37900;52.996;6.278;2023-04-25T12:00:12;3.05;;;1.90;;
51862;SDS011;37900;52.996;6.278;2023-04-25T12:02:45;3.67;;;1.80;;
51862;SDS011;37900;52.996;6.278;2023-04-25T12:05:13;2.47;;;1.40;;
51862;SDS011;37900;52.996;6.278;2023-04-25T12:07:43;3.95;;;1.98;;
51862;SDS011;37900;52.996;6.278;2023-04-25T12:10:13;4.13;;;1.88;;
51862;SDS011;37900;52.996;6.278;2023-04-25T12:12:46;3.55;;;1.70;;
51862;SDS011;37900;52.996;6.278;2023-04-25T12:15:17;2.90;;;1.85;;
51862;SDS011;37900;52.996;6.278;2023-04-25T12:17:52;2.75;;;1.55;;
51862;SDS011;37900;52.996;6.278;2023-04-25T12:20:20;2.88;;;1.48;;
51862;SDS011;37900;52.996;6.278;2023-04-25T12:22:49;11.73;;;2.33;;
51862;SDS011;37900;52.996;6.278;2023-04-25T12:28:20;1.60;;;1.20;;
51862;SDS011;37900;52.996;6.278;2023-04-25T12:31:01;3.00;;;1.52;;
51862;SDS011;37900;52.996;6.278;2023-04-25T12:33:28;2.53;;;1.52;;
51862;SDS011;37900;52.996;6.278;2023-04-25T12:35:56;3.25;;;1.48;;
51862;SDS011;37900;52.996;6.278;2023-04-25T12:38:29;2.90;;;1.30;;
51862;SDS011;37900;52.996;6.278;2023-04-25T12:40:57;3.58;;;1.60;;
51862;SDS011;37900;52.996;6.278;2023-04-25T12:43:23;3.92;;;1.20;;
51862;SDS011;37900;52.996;6.278;2023-04-25T12:45:53;3.35;;;1.50;;
51862;SDS011;37900;52.996;6.278;2023-04-25T12:48:20;3.00;;;1.40;;
51862;SDS011;37900;52.996;6.278;2023-04-25T12:50:46;2.50;;;1.63;;
51862;SDS011;37900;52.996;6.278;2023-04-25T12:53:17;2.17;;;1.70;;
51862;SDS011;37900;52.996;6.278;2023-04-25T12:55:47;1.88;;;1.13;;
51862;SDS011;37900;52.996;6.278;2023-04-25T12:58:17;2.67;;;1.33;;
51862;SDS011;37900;52.996;6.278;2023-04-25T13:00:44;3.30;;;1.33;;
51862;SDS011;37900;52.996;6.278;2023-04-25T13:03:10;2.40;;;1.45;;
51862;SDS011;37900;52.996;6.278;2023-04-25T13:05:37;2.67;;;1.10;;
51862;SDS011;37900;52.996;6.278;2023-04-25T13:08:03;6.60;;;2.55;;
51862;SDS011;37900;52.996;6.278;2023-04-25T13:10:29;2.38;;;1.50;;
51862;SDS011;37900;52.996;6.278;2023-04-25T13:12:55;3.25;;;1.67;;
51862;SDS011;37900;52.996;6.278;2023-04-25T13:15:22;2.33;;;1.40;;
51862;SDS011;37900;52.996;6.278;2023-04-25T13:17:48;2.30;;;1.30;;
51862;SDS011;37900;52.996;6.278;2023-04-25T13:20:13;3.28;;;1.40;;
51862;SDS011;37900;52.996;6.278;2023-04-25T13:22:41;3.35;;;1.13;;
51862;SDS011;37900;52.996;6.278;2023-04-25T13:25:07;2.13;;;1.50;;
51862;SDS011;37900;52.996;6.278;2023-04-25T13:27:34;4.07;;;1.85;;
51862;SDS011;37900;52.996;6.278;2023-04-25T13:30:01;6.93;;;1.95;;
51862;SDS011;37900;52.996;6.278;2023-04-25T13:32:32;2.00;;;1.27;;
51862;SDS011;37900;52.996;6.278;2023-04-25T13:34:59;1.77;;;1.17;;
51862;SDS011;37900;52.996;6.278;2023-04-25T13:37:25;1.53;;;1.17;;
51862;SDS011;37900;52.996;6.278;2023-04-25T13:39:51;2.25;;;1.50;;
51862;SDS011;37900;52.996;6.278;2023-04-25T13:42:17;1.77;;;1.15;;
51862;SDS011;37900;52.996;6.278;2023-04-25T13:44:43;1.90;;;1.23;;
51862;SDS011;37900;52.996;6.278;2023-04-25T13:47:08;1.38;;;1.02;;
51862;SDS011;37900;52.996;6.278;2023-04-25T13:49:34;2.55;;;1.27;;
51862;SDS011;37900;52.996;6.278;2023-04-25T13:52:00;3.30;;;1.17;;
51862;SDS011;37900;52.996;6.278;2023-04-25T13:54:25;2.08;;;1.13;;
51862;SDS011;37900;52.996;6.278;2023-04-25T13:56:51;2.55;;;1.58;;
51862;SDS011;37900;52.996;6.278;2023-04-25T13:59:20;3.33;;;1.25;;
51862;SDS011;37900;52.996;6.278;2023-04-25T14:01:45;2.38;;;1.60;;
51862;SDS011;37900;52.996;6.278;2023-04-25T14:04:11;2.83;;;1.10;;
51862;SDS011;37900;52.996;6.278;2023-04-25T14:06:37;1.90;;;1.45;;
51862;SDS011;37900;52.996;6.278;2023-04-25T14:09:03;2.35;;;1.35;;
51862;SDS011;37900;52.996;6.278;2023-04-25T14:11:29;2.72;;;1.40;;
51862;SDS011;37900;52.996;6.278;2023-04-25T14:13:55;2.70;;;1.50;;
51862;SDS011;37900;52.996;6.278;2023-04-25T14:16:21;2.85;;;1.13;;
51862;SDS011;37900;52.996;6.278;2023-04-25T14:18:47;2.50;;;1.58;;
51862;SDS011;37900;52.996;6.278;2023-04-25T14:21:13;4.05;;;1.38;;
51862;SDS011;37900;52.996;6.278;2023-04-25T14:23:39;1.80;;;1.13;;
51862;SDS011;37900;52.996;6.278;2023-04-25T14:26:05;1.67;;;0.93;;
51862;SDS011;37900;52.996;6.278;2023-04-25T14:28:31;1.67;;;1.00;;
51862;SDS011;37900;52.996;6.278;2023-04-25T14:30:56;1.40;;;1.10;;
51862;SDS011;37900;52.996;6.278;2023-04-25T14:33:22;2.88;;;1.33;;
51862;SDS011;37900;52.996;6.278;2023-04-25T14:35:48;1.92;;;1.02;;
51862;SDS011;37900;52.996;6.278;2023-04-25T14:38:14;3.00;;;1.30;;
51862;SDS011;37900;52.996;6.278;2023-04-25T14:40:40;1.30;;;1.20;;
51862;SDS011;37900;52.996;6.278;2023-04-25T14:43:06;1.92;;;1.20;;
51862;SDS011;37900;52.996;6.278;2023-04-25T14:45:33;1.58;;;1.02;;
51862;SDS011;37900;52.996;6.278;2023-04-25T14:50:24;1.45;;;1.17;;
51862;SDS011;37900;52.996;6.278;2023-04-25T14:52:50;1.55;;;1.00;;
51862;SDS011;37900;52.996;6.278;2023-04-25T14:57:43;2.50;;;1.55;;
51862;SDS011;37900;52.996;6.278;2023-04-25T15:00:09;1.20;;;1.02;;
51862;SDS011;37900;52.996;6.278;2023-04-25T15:02:38;1.55;;;1.35;;
51862;SDS011;37900;52.996;6.278;2023-04-25T15:05:04;1.75;;;1.30;;
51862;SDS011;37900;52.996;6.278;2023-04-25T15:07:30;1.67;;;1.00;;